sensor_id;sensor_type;location;lat;lon;timestamp;P1;durP1;ratioP1;P2;durP2;ratioP2
3696;SDS011;60662;48.810;8.872;2022-08-30T06:43:45;19.50;;;7.05;;
3696;SDS011;60662;48.810;8.872;2022-08-30T06:44:49;18.58;;;6.80;;
3696;SDS011;60662;48.810;8.872;2022-08-30T06:45:51;23.30;;;7.07;;
3696;SDS011;60662;48.810;8.872;2022-08-30T06:46:53;21.38;;;6.60;;
3696;SDS011;60662;48.810;8.872;2022-08-30T06:47:54;23.45;;;6.85;;
3696;SDS011;60662;48.810;8.872;2022-08-30T06:48:59;18.27;;;7.68;;
3696;SDS011;60662;48.810;8.872;2022-08-30T06:50:01;22.25;;;6.97;;
3696;SDS011;60662;48.810;8.872;2022-08-30T06:51:03;25.05;;;7.45;;
3696;SDS011;60662;48.810;8.872;2022-08-30T06:52:05;22.50;;;6.57;;
3696;SDS011;60662;48.810;8.872;2022-08-30T06:53:07;15.57;;;6.50;;
3696;SDS011;60662;48.810;8.872;2022-08-30T06:54:10;33.88;;;6.93;;
3696;SDS011;60662;48.810;8.872;2022-08-30T06:55:13;14.95;;;5.53;;
3696;SDS011;60662;48.810;8.872;2022-08-30T06:56:16;15.25;;;6.05;;
3696;SDS011;60662;48.810;8.872;2022-08-30T06:57:19;30.42;;;7.88;;
3696;SDS011;60662;48.810;8.872;2022-08-30T07:19:05;16.13;;;6.13;;
3696;SDS011;60662;48.810;8.872;2022-08-30T07:20:07;13.93;;;5.63;;
3696;SDS011;60662;48.810;8.872;2022-08-30T07:21:11;15.10;;;5.78;;
3696;SDS011;60662;48.810;8.872;2022-08-30T07:22:15;12.90;;;5.95;;
3696;SDS011;60662;48.810;8.872;2022-08-30T07:23:17;12.98;;;5.10;;
3696;SDS011;60662;48.810;8.872;2022-08-30T07:31:06;11.00;;;5.55;;
3696;SDS011;60662;48.810;8.872;2022-08-30T07:32:13;12.68;;;5.57;;
3696;SDS011;60662;48.810;8.872;2022-08-30T07:33:18;15.02;;;5.90;;
3696;SDS011;60662;48.810;8.872;2022-08-30T07:34:20;12.27;;;6.38;;
3696;SDS011;60662;48.810;8.872;2022-08-30T07:35:25;7.28;;;5.40;;
3696;SDS011;60662;48.810;8.872;2022-08-30T07:56:11;10.35;;;5.35;;
3696;SDS011;60662;48.810;8.872;2022-08-30T07:57:13;13.30;;;5.50;;
3696;SDS011;60662;48.810;8.872;2022-08-30T07:58:16;12.75;;;6.28;;
3696;SDS011;60662;48.810;8.872;2022-08-30T07:59:18;9.48;;;5.50;;
3696;SDS011;60662;48.810;8.872;2022-08-30T08:00:20;18.25;;;5.68;;
3696;SDS011;60662;48.810;8.872;2022-08-30T08:01:21;9.63;;;5.68;;
3696;SDS011;60662;48.810;8.872;2022-08-30T08:02:24;16.55;;;6.30;;
3696;SDS011;60662;48.810;8.872;2022-08-30T08:03:25;16.83;;;5.13;;
3696;SDS011;60662;48.810;8.872;2022-08-30T08:04:27;27.70;;;6.60;;
3696;SDS011;60662;48.810;8.872;2022-08-30T08:05:28;11.15;;;4.80;;
3696;SDS011;60662;48.810;8.872;2022-08-30T08:24:45;17.88;;;5.82;;
3696;SDS011;60662;48.810;8.872;2022-08-30T08:25:46;9.60;;;4.90;;
3696;SDS011;60662;48.810;8.872;2022-08-30T08:26:48;14.02;;;4.70;;
3696;SDS011;60662;48.810;8.872;2022-08-30T08:27:49;20.20;;;4.60;;
3696;SDS011;60662;48.810;8.872;2022-08-30T08:28:51;13.70;;;4.68;;
3696;SDS011;60662;48.810;8.872;2022-08-30T08:29:53;10.27;;;5.53;;
3696;SDS011;60662;48.810;8.872;2022-08-30T08:37:09;11.20;;;4.90;;
3696;SDS011;60662;48.810;8.872;2022-08-30T08:38:11;9.15;;;4.53;;
3696;SDS011;60662;48.810;8.872;2022-08-30T08:39:13;7.43;;;5.20;;
3696;SDS011;60662;48.810;8.872;2022-08-30T08:40:16;8.70;;;4.60;;
3696;SDS011;60662;48.810;8.872;2022-08-30T08:41:29;13.00;;;4.88;;
3696;SDS011;60662;48.810;8.872;2022-08-30T08:43:04;10.48;;;4.18;;
3696;SDS011;60662;48.810;8.872;2022-08-30T08:44:27;7.25;;;4.18;;
3696;SDS011;60662;48.810;8.872;2022-08-30T08:47:05;10.20;;;4.78;;
3696;SDS011;60662;48.810;8.872;2022-08-30T09:07:47;16.73;;;4.57;;
3696;SDS011;60662;48.810;8.872;2022-08-30T09:08:53;12.13;;;6.63;;
3696;SDS011;60662;48.810;8.872;2022-08-30T09:09:56;13.80;;;6.15;;
3696;SDS011;60662;48.810;8.872;2022-08-30T09:11:02;14.50;;;5.50;;
3696;SDS011;60662;48.810;8.872;2022-08-30T09:18:53;10.60;;;4.25;;
3696;SDS011;60662;48.810;8.872;2022-08-30T09:20:56;17.08;;;6.10;;
3696;SDS011;60662;48.810;8.872;2022-08-30T09:22:21;6.05;;;4.65;;
3696;SDS011;60662;48.810;8.872;2022-08-30T09:23:28;9.40;;;4.90;;
3696;SDS011;60662;48.810;8.872;2022-08-30T09:31:17;12.60;;;4.30;;
3696;SDS011;60662;48.810;8.872;2022-08-30T09:32:25;17.50;;;4.70;;
3696;SDS011;60662;48.810;8.872;2022-08-30T09:33:29;19.27;;;5.10;;
3696;SDS011;60662;48.810;8.872;2022-08-30T09:34:32;11.55;;;5.40;;
3696;SDS011;60662;48.810;8.872;2022-08-30T09:35:38;11.07;;;6.15;;
3696;SDS011;60662;48.810;8.872;2022-08-30T09:39:05;9.13;;;5.03;;
3696;SDS011;60662;48.810;8.872;2022-08-30T09:40:24;6.97;;;5.45;;
3696;SDS011;60662;48.810;8.872;2022-08-30T09:41:33;10.70;;;4.38;;
3696;SDS011;60662;48.810;8.872;2022-08-30T09:42:38;16.10;;;5.15;;
3696;SDS011;60662;48.810;8.872;2022-08-30T09:43:40;13.40;;;4.47;;
3696;SDS011;60662;48.810;8.872;2022-08-30T09:44:42;8.32;;;3.95;;
3696;SDS011;60662;48.810;8.872;2022-08-30T09:45:45;14.95;;;4.65;;
3696;SDS011;60662;48.810;8.872;2022-08-30T09:46:54;25.65;;;5.70;;
3696;SDS011;60662;48.810;8.872;2022-08-30T09:47:59;13.15;;;4.70;;
3696;SDS011;60662;48.810;8.872;2022-08-30T10:00:20;13.82;;;4.38;;
3696;SDS011;60662;48.810;8.872;2022-08-30T10:01:29;9.05;;;4.20;;
3696;SDS011;60662;48.810;8.872;2022-08-30T10:08:44;8.77;;;4.43;;
3696;SDS011;60662;48.810;8.872;2022-08-30T10:10:05;6.33;;;4.00;;
3696;SDS011;60662;48.810;8.872;2022-08-30T10:11:19;24.60;;;5.10;;
3696;SDS011;60662;48.810;8.872;2022-08-30T10:12:59;12.07;;;5.03;;
3696;SDS011;60662;48.810;8.872;2022-08-30T10:14:24;11.10;;;4.50;;
3696;SDS011;60662;48.810;8.872;2022-08-30T10:17:21;5.77;;;3.70;;
3696;SDS011;60662;48.810;8.872;2022-08-30T10:18:47;7.83;;;4.33;;
3696;SDS011;60662;48.810;8.872;2022-08-30T10:20:02;7.37;;;4.70;;
3696;SDS011;60662;48.810;8.872;2022-08-30T10:23:03;15.30;;;6.17;;
3696;SDS011;60662;48.810;8.872;2022-08-30T10:24:11;16.37;;;5.13;;
3696;SDS011;60662;48.810;8.872;2022-08-30T10:25:22;10.43;;;5.13;;
3696;SDS011;60662;48.810;8.872;2022-08-30T10:27:48;12.07;;;4.80;;
3696;SDS011;60662;48.810;8.872;2022-08-30T10:28:56;10.63;;;4.70;;
3696;SDS011;60662;48.810;8.872;2022-08-30T10:37:09;6.67;;;4.33;;
3696;SDS011;60662;48.810;8.872;2022-08-30T10:38:25;5.03;;;4.10;;
3696;SDS011;60662;48.810;8.872;2022-08-30T10:39:45;7.10;;;3.30;;
3696;SDS011;60662;48.810;8.872;2022-08-30T10:40:51;9.73;;;4.20;;
3696;SDS011;60662;48.810;8.872;2022-08-30T10:42:17;7.13;;;4.17;;
3696;SDS011;60662;48.810;8.872;2022-08-30T10:43:23;8.80;;;4.40;;
3696;SDS011;60662;48.810;8.872;2022-08-30T10:44:36;8.87;;;3.53;;
3696;SDS011;60662;48.810;8.872;2022-08-30T10:45:44;4.77;;;3.60;;
3696;SDS011;60662;48.810;8.872;2022-08-30T10:48:10;8.30;;;4.10;;
3696;SDS011;60662;48.810;8.872;2022-08-30T10:49:23;6.50;;;3.90;;
3696;SDS011;60662;48.810;8.872;2022-08-30T10:50:31;8.73;;;4.10;;
3696;SDS011;60662;48.810;8.872;2022-08-30T10:53:11;6.20;;;3.60;;
3696;SDS011;60662;48.810;8.872;2022-08-30T10:54:25;4.50;;;3.20;;
3696;SDS011;60662;48.810;8.872;2022-08-30T10:55:36;4.57;;;4.10;;
3696;SDS011;60662;48.810;8.872;2022-08-30T10:56:50;6.13;;;3.40;;
3696;SDS011;60662;48.810;8.872;2022-08-30T10:57:52;6.23;;;3.73;;
3696;SDS011;60662;48.810;8.872;2022-08-30T10:59:00;6.30;;;3.83;;
3696;SDS011;60662;48.810;8.872;2022-08-30T11:00:07;4.40;;;3.00;;
3696;SDS011;60662;48.810;8.872;2022-08-30T11:05:23;5.80;;;4.30;;
3696;SDS011;60662;48.810;8.872;2022-08-30T11:14:19;13.03;;;4.50;;
3696;SDS011;60662;48.810;8.872;2022-08-30T11:15:26;14.43;;;4.53;;
3696;SDS011;60662;48.810;8.872;2022-08-30T11:16:38;6.83;;;4.60;;
3696;SDS011;60662;48.810;8.872;2022-08-30T11:17:52;5.50;;;3.63;;
3696;SDS011;60662;48.810;8.872;2022-08-30T11:25:12;6.47;;;3.63;;
3696;SDS011;60662;48.810;8.872;2022-08-30T11:27:54;5.73;;;3.50;;
3696;SDS011;60662;48.810;8.872;2022-08-30T11:29:00;10.60;;;4.80;;
3696;SDS011;60662;48.810;8.872;2022-08-30T11:34:02;9.50;;;4.70;;
3696;SDS011;60662;48.810;8.872;2022-08-30T11:35:06;8.23;;;4.67;;
3696;SDS011;60662;48.810;8.872;2022-08-30T11:37:55;8.73;;;4.47;;
3696;SDS011;60662;48.810;8.872;2022-08-30T11:39:05;11.97;;;4.60;;
3696;SDS011;60662;48.810;8.872;2022-08-30T11:41:33;5.80;;;3.83;;
3696;SDS011;60662;48.810;8.872;2022-08-30T11:42:45;5.90;;;3.97;;
3696;SDS011;60662;48.810;8.872;2022-08-30T11:43:51;15.33;;;4.00;;
3696;SDS011;60662;48.810;8.872;2022-08-30T11:47:45;8.07;;;3.60;;
3696;SDS011;60662;48.810;8.872;2022-08-30T11:53:31;14.83;;;3.70;;
3696;SDS011;60662;48.810;8.872;2022-08-30T11:56:17;9.10;;;4.60;;
3696;SDS011;60662;48.810;8.872;2022-08-30T12:00:39;6.03;;;3.87;;
3696;SDS011;60662;48.810;8.872;2022-08-30T12:01:52;6.67;;;3.77;;
3696;SDS011;60662;48.810;8.872;2022-08-30T12:02:58;4.67;;;3.87;;
3696;SDS011;60662;48.810;8.872;2022-08-30T12:09:02;9.90;;;3.80;;
3696;SDS011;60662;48.810;8.872;2022-08-30T12:10:13;4.63;;;3.80;;
3696;SDS011;60662;48.810;8.872;2022-08-30T12:14:49;7.53;;;3.93;;
3696;SDS011;60662;48.810;8.872;2022-08-30T12:15:54;7.30;;;4.57;;
3696;SDS011;60662;48.810;8.872;2022-08-30T12:16:58;6.93;;;3.80;;
3696;SDS011;60662;48.810;8.872;2022-08-30T12:18:29;4.33;;;3.70;;
3696;SDS011;60662;48.810;8.872;2022-08-30T12:19:34;5.93;;;3.80;;
3696;SDS011;60662;48.810;8.872;2022-08-30T12:20:43;9.60;;;4.10;;
3696;SDS011;60662;48.810;8.872;2022-08-30T12:21:54;6.33;;;4.30;;
3696;SDS011;60662;48.810;8.872;2022-08-30T12:22:57;10.33;;;4.50;;
3696;SDS011;60662;48.810;8.872;2022-08-30T12:24:29;5.93;;;3.97;;
3696;SDS011;60662;48.810;8.872;2022-08-30T12:25:36;5.53;;;3.90;;
3696;SDS011;60662;48.810;8.872;2022-08-30T12:26:42;5.20;;;3.97;;
3696;SDS011;60662;48.810;8.872;2022-08-30T12:27:45;10.00;;;3.80;;
3696;SDS011;60662;48.810;8.872;2022-08-30T12:28:48;5.87;;;3.90;;
3696;SDS011;60662;48.810;8.872;2022-08-30T12:29:52;7.30;;;4.10;;
3696;SDS011;60662;48.810;8.872;2022-08-30T12:31:37;9.37;;;3.87;;
3696;SDS011;60662;48.810;8.872;2022-08-30T12:32:28;5.37;;;4.40;;
3696;SDS011;60662;48.810;8.872;2022-08-30T12:33:33;15.40;;;3.73;;
3696;SDS011;60662;48.810;8.872;2022-08-30T12:35:45;4.60;;;3.40;;
3696;SDS011;60662;48.810;8.872;2022-08-30T12:36:52;9.53;;;3.10;;
3696;SDS011;60662;48.810;8.872;2022-08-30T12:37:55;4.83;;;3.83;;
3696;SDS011;60662;48.810;8.872;2022-08-30T12:39:06;11.17;;;3.83;;
3696;SDS011;60662;48.810;8.872;2022-08-30T12:40:21;6.40;;;3.70;;
3696;SDS011;60662;48.810;8.872;2022-08-30T12:41:24;6.53;;;4.20;;
3696;SDS011;60662;48.810;8.872;2022-08-30T12:42:31;5.33;;;3.70;;
3696;SDS011;60662;48.810;8.872;2022-08-30T12:43:37;7.20;;;3.17;;
3696;SDS011;60662;48.810;8.872;2022-08-30T12:44:49;14.73;;;4.07;;
3696;SDS011;60662;48.810;8.872;2022-08-30T12:45:53;22.80;;;19.47;;
3696;SDS011;60662;48.810;8.872;2022-08-30T12:47:07;41.37;;;34.63;;
3696;SDS011;60662;48.810;8.872;2022-08-30T12:48:15;70.23;;;51.27;;
3696;SDS011;60662;48.810;8.872;2022-08-30T12:49:20;24.07;;;18.60;;
3696;SDS011;60662;48.810;8.872;2022-08-30T12:50:27;7.20;;;5.53;;
3696;SDS011;60662;48.810;8.872;2022-08-30T12:51:39;4.07;;;3.17;;
3696;SDS011;60662;48.810;8.872;2022-08-30T12:52:43;6.93;;;3.50;;
3696;SDS011;60662;48.810;8.872;2022-08-30T12:53:48;13.10;;;3.70;;
3696;SDS011;60662;48.810;8.872;2022-08-30T12:54:52;3.90;;;3.50;;
3696;SDS011;60662;48.810;8.872;2022-08-30T12:55:58;5.60;;;3.50;;
3696;SDS011;60662;48.810;8.872;2022-08-30T12:57:03;5.20;;;2.90;;
3696;SDS011;60662;48.810;8.872;2022-08-30T12:58:35;5.20;;;3.50;;
3696;SDS011;60662;48.810;8.872;2022-08-30T13:06:09;5.53;;;3.33;;
3696;SDS011;60662;48.810;8.872;2022-08-30T13:07:11;7.50;;;4.13;;
3696;SDS011;60662;48.810;8.872;2022-08-30T13:08:18;6.03;;;3.67;;
3696;SDS011;60662;48.810;8.872;2022-08-30T13:09:29;6.13;;;3.70;;
3696;SDS011;60662;48.810;8.872;2022-08-30T13:10:34;6.87;;;3.60;;
3696;SDS011;60662;48.810;8.872;2022-08-30T13:11:36;10.13;;;4.10;;
3696;SDS011;60662;48.810;8.872;2022-08-30T13:12:37;9.40;;;3.73;;
3696;SDS011;60662;48.810;8.872;2022-08-30T13:13:48;7.60;;;3.50;;
3696;SDS011;60662;48.810;8.872;2022-08-30T13:15:07;5.50;;;4.00;;
3696;SDS011;60662;48.810;8.872;2022-08-30T13:19:34;9.50;;;3.13;;
3696;SDS011;60662;48.810;8.872;2022-08-30T13:20:37;11.63;;;3.40;;
3696;SDS011;60662;48.810;8.872;2022-08-30T13:21:46;4.93;;;3.77;;
3696;SDS011;60662;48.810;8.872;2022-08-30T13:24:05;6.87;;;2.87;;
3696;SDS011;60662;48.810;8.872;2022-08-30T13:25:07;5.47;;;3.30;;
3696;SDS011;60662;48.810;8.872;2022-08-30T13:26:10;5.47;;;3.40;;
3696;SDS011;60662;48.810;8.872;2022-08-30T13:27:12;7.23;;;3.67;;
3696;SDS011;60662;48.810;8.872;2022-08-30T13:28:16;9.80;;;3.77;;
3696;SDS011;60662;48.810;8.872;2022-08-30T13:29:23;10.53;;;3.90;;
3696;SDS011;60662;48.810;8.872;2022-08-30T13:30:27;5.87;;;2.93;;
3696;SDS011;60662;48.810;8.872;2022-08-30T13:31:36;10.60;;;3.97;;
3696;SDS011;60662;48.810;8.872;2022-08-30T13:32:38;5.93;;;3.63;;
3696;SDS011;60662;48.810;8.872;2022-08-30T13:33:40;5.57;;;3.73;;
3696;SDS011;60662;48.810;8.872;2022-08-30T13:34:41;5.47;;;3.50;;
3696;SDS011;60662;48.810;8.872;2022-08-30T13:35:43;4.50;;;3.17;;
3696;SDS011;60662;48.810;8.872;2022-08-30T13:36:46;5.60;;;3.50;;
3696;SDS011;60662;48.810;8.872;2022-08-30T13:37:50;5.30;;;3.90;;
3696;SDS011;60662;48.810;8.872;2022-08-30T13:38:52;5.50;;;3.27;;
3696;SDS011;60662;48.810;8.872;2022-08-30T13:39:54;4.53;;;3.40;;
3696;SDS011;60662;48.810;8.872;2022-08-30T13:40:55;5.23;;;3.53;;
3696;SDS011;60662;48.810;8.872;2022-08-30T13:48:25;10.43;;;3.43;;
3696;SDS011;60662;48.810;8.872;2022-08-30T13:49:28;3.60;;;2.87;;
3696;SDS011;60662;48.810;8.872;2022-08-30T13:50:47;4.33;;;3.33;;
3696;SDS011;60662;48.810;8.872;2022-08-30T13:51:48;5.20;;;3.80;;
3696;SDS011;60662;48.810;8.872;2022-08-30T13:53:13;8.47;;;3.20;;
3696;SDS011;60662;48.810;8.872;2022-08-30T13:54:15;14.43;;;3.77;;
3696;SDS011;60662;48.810;8.872;2022-08-30T13:55:17;8.80;;;3.30;;
3696;SDS011;60662;48.810;8.872;2022-08-30T13:56:18;6.27;;;3.67;;
3696;SDS011;60662;48.810;8.872;2022-08-30T13:57:25;5.27;;;3.60;;
3696;SDS011;60662;48.810;8.872;2022-08-30T13:58:48;4.40;;;3.00;;
3696;SDS011;60662;48.810;8.872;2022-08-30T13:59:50;14.30;;;4.13;;
3696;SDS011;60662;48.810;8.872;2022-08-30T14:00:52;5.13;;;3.70;;
3696;SDS011;60662;48.810;8.872;2022-08-30T14:01:56;13.30;;;3.40;;
3696;SDS011;60662;48.810;8.872;2022-08-30T14:03:12;5.73;;;3.50;;
3696;SDS011;60662;48.810;8.872;2022-08-30T14:04:14;10.90;;;3.70;;
3696;SDS011;60662;48.810;8.872;2022-08-30T14:05:17;5.00;;;3.57;;
3696;SDS011;60662;48.810;8.872;2022-08-30T14:06:38;5.57;;;2.90;;
3696;SDS011;60662;48.810;8.872;2022-08-30T14:08:00;9.37;;;3.10;;
3696;SDS011;60662;48.810;8.872;2022-08-30T14:09:02;4.70;;;3.60;;
3696;SDS011;60662;48.810;8.872;2022-08-30T14:10:06;9.33;;;3.87;;
3696;SDS011;60662;48.810;8.872;2022-08-30T14:18:04;8.00;;;3.60;;
3696;SDS011;60662;48.810;8.872;2022-08-30T14:19:06;3.90;;;3.13;;
3696;SDS011;60662;48.810;8.872;2022-08-30T14:20:11;7.23;;;3.23;;
3696;SDS011;60662;48.810;8.872;2022-08-30T14:21:18;6.67;;;3.10;;
3696;SDS011;60662;48.810;8.872;2022-08-30T14:22:24;4.17;;;3.63;;
3696;SDS011;60662;48.810;8.872;2022-08-30T14:23:26;6.40;;;3.90;;
3696;SDS011;60662;48.810;8.872;2022-08-30T14:24:28;5.27;;;3.30;;
3696;SDS011;60662;48.810;8.872;2022-08-30T14:25:29;5.30;;;3.53;;
3696;SDS011;60662;48.810;8.872;2022-08-30T14:26:33;3.70;;;3.30;;
3696;SDS011;60662;48.810;8.872;2022-08-30T14:27:36;4.30;;;3.10;;
3696;SDS011;60662;48.810;8.872;2022-08-30T14:28:38;6.03;;;3.23;;
3696;SDS011;60662;48.810;8.872;2022-08-30T14:29:39;4.87;;;3.33;;
3696;SDS011;60662;48.810;8.872;2022-08-30T14:30:43;5.00;;;3.50;;
3696;SDS011;60662;48.810;8.872;2022-08-30T14:31:50;5.50;;;3.30;;
3696;SDS011;60662;48.810;8.872;2022-08-30T14:32:52;8.93;;;3.27;;
3696;SDS011;60662;48.810;8.872;2022-08-30T14:33:54;4.97;;;3.13;;
3696;SDS011;60662;48.810;8.872;2022-08-30T14:34:55;3.33;;;3.03;;
3696;SDS011;60662;48.810;8.872;2022-08-30T14:35:57;4.10;;;2.83;;
3696;SDS011;60662;48.810;8.872;2022-08-30T14:36:58;6.90;;;3.60;;
3696;SDS011;60662;48.810;8.872;2022-08-30T14:38:00;6.50;;;3.67;;
3696;SDS011;60662;48.810;8.872;2022-08-30T14:39:02;5.40;;;2.90;;
3696;SDS011;60662;48.810;8.872;2022-08-30T14:40:09;9.90;;;3.63;;
3696;SDS011;60662;48.810;8.872;2022-08-30T14:41:10;5.60;;;3.23;;
3696;SDS011;60662;48.810;8.872;2022-08-30T14:42:12;11.10;;;3.27;;
3696;SDS011;60662;48.810;8.872;2022-08-30T14:43:19;6.17;;;3.43;;
3696;SDS011;60662;48.810;8.872;2022-08-30T14:44:21;5.60;;;3.60;;
3696;SDS011;60662;48.810;8.872;2022-08-30T14:45:23;7.00;;;3.90;;
3696;SDS011;60662;48.810;8.872;2022-08-30T14:46:25;5.70;;;3.60;;
3696;SDS011;60662;48.810;8.872;2022-08-30T14:54:05;4.73;;;3.33;;
3696;SDS011;60662;48.810;8.872;2022-08-30T14:55:08;5.50;;;3.20;;
3696;SDS011;60662;48.810;8.872;2022-08-30T14:56:13;8.47;;;4.60;;
3696;SDS011;60662;48.810;8.872;2022-08-30T14:57:16;7.03;;;3.70;;
3696;SDS011;60662;48.810;8.872;2022-08-30T14:58:17;10.53;;;3.30;;
3696;SDS011;60662;48.810;8.872;2022-08-30T14:59:19;6.73;;;4.13;;
3696;SDS011;60662;48.810;8.872;2022-08-30T15:00:21;6.40;;;3.20;;
3696;SDS011;60662;48.810;8.872;2022-08-30T15:01:26;9.50;;;3.87;;
3696;SDS011;60662;48.810;8.872;2022-08-30T15:02:28;5.60;;;3.00;;
3696;SDS011;60662;48.810;8.872;2022-08-30T15:03:29;5.67;;;3.80;;
3696;SDS011;60662;48.810;8.872;2022-08-30T15:04:31;4.33;;;3.40;;
3696;SDS011;60662;48.810;8.872;2022-08-30T15:12:05;4.97;;;3.10;;
3696;SDS011;60662;48.810;8.872;2022-08-30T15:13:07;4.20;;;3.00;;
3696;SDS011;60662;48.810;8.872;2022-08-30T15:14:09;5.03;;;2.97;;
3696;SDS011;60662;48.810;8.872;2022-08-30T15:15:17;4.73;;;3.50;;
3696;SDS011;60662;48.810;8.872;2022-08-30T15:16:24;5.60;;;3.40;;
3696;SDS011;60662;48.810;8.872;2022-08-30T15:17:28;10.87;;;3.63;;
3696;SDS011;60662;48.810;8.872;2022-08-30T15:18:29;5.10;;;3.60;;
3696;SDS011;60662;48.810;8.872;2022-08-30T15:19:31;3.83;;;3.17;;
3696;SDS011;60662;48.810;8.872;2022-08-30T15:20:33;6.37;;;3.30;;
3696;SDS011;60662;48.810;8.872;2022-08-30T15:21:39;7.63;;;2.63;;
3696;SDS011;60662;48.810;8.872;2022-08-30T15:22:43;9.43;;;3.30;;
3696;SDS011;60662;48.810;8.872;2022-08-30T15:23:46;5.63;;;3.03;;
3696;SDS011;60662;48.810;8.872;2022-08-30T15:24:49;5.20;;;3.30;;
3696;SDS011;60662;48.810;8.872;2022-08-30T15:25:51;5.07;;;3.80;;
3696;SDS011;60662;48.810;8.872;2022-08-30T15:26:52;5.60;;;3.20;;
3696;SDS011;60662;48.810;8.872;2022-08-30T15:27:55;3.80;;;3.40;;
3696;SDS011;60662;48.810;8.872;2022-08-30T15:28:56;7.23;;;3.30;;
3696;SDS011;60662;48.810;8.872;2022-08-30T15:36:07;6.17;;;3.40;;
3696;SDS011;60662;48.810;8.872;2022-08-30T15:37:09;4.87;;;3.60;;
3696;SDS011;60662;48.810;8.872;2022-08-30T15:38:13;7.90;;;3.50;;
3696;SDS011;60662;48.810;8.872;2022-08-30T15:39:15;8.63;;;3.70;;
3696;SDS011;60662;48.810;8.872;2022-08-30T15:40:17;10.27;;;3.17;;
3696;SDS011;60662;48.810;8.872;2022-08-30T15:41:20;7.33;;;3.57;;
3696;SDS011;60662;48.810;8.872;2022-08-30T15:42:22;8.40;;;3.80;;
3696;SDS011;60662;48.810;8.872;2022-08-30T15:43:23;4.20;;;3.07;;
3696;SDS011;60662;48.810;8.872;2022-08-30T15:44:25;4.23;;;3.43;;
3696;SDS011;60662;48.810;8.872;2022-08-30T15:45:27;7.07;;;3.67;;
3696;SDS011;60662;48.810;8.872;2022-08-30T15:46:36;14.80;;;4.17;;
3696;SDS011;60662;48.810;8.872;2022-08-30T15:47:39;9.87;;;3.70;;
3696;SDS011;60662;48.810;8.872;2022-08-30T15:48:40;5.30;;;3.80;;
3696;SDS011;60662;48.810;8.872;2022-08-30T15:49:52;5.40;;;3.30;;
3696;SDS011;60662;48.810;8.872;2022-08-30T15:50:58;4.73;;;3.50;;
3696;SDS011;60662;48.810;8.872;2022-08-30T15:52:00;8.40;;;3.67;;
3696;SDS011;60662;48.810;8.872;2022-08-30T15:53:04;11.37;;;3.90;;
3696;SDS011;60662;48.810;8.872;2022-08-30T15:54:08;7.67;;;3.77;;
3696;SDS011;60662;48.810;8.872;2022-08-30T15:55:11;7.63;;;3.60;;
3696;SDS011;60662;48.810;8.872;2022-08-30T15:56:17;8.20;;;3.83;;
3696;SDS011;60662;48.810;8.872;2022-08-30T15:57:19;13.73;;;3.97;;
3696;SDS011;60662;48.810;8.872;2022-08-30T15:58:21;4.90;;;3.53;;
3696;SDS011;60662;48.810;8.872;2022-08-30T15:59:22;7.40;;;3.53;;
3696;SDS011;60662;48.810;8.872;2022-08-30T16:00:23;7.27;;;3.57;;
3696;SDS011;60662;48.810;8.872;2022-08-30T16:01:30;7.17;;;4.30;;
3696;SDS011;60662;48.810;8.872;2022-08-30T16:02:32;5.73;;;4.37;;
3696;SDS011;60662;48.810;8.872;2022-08-30T16:03:35;5.10;;;4.00;;
3696;SDS011;60662;48.810;8.872;2022-08-30T16:04:37;8.10;;;3.90;;
3696;SDS011;60662;48.810;8.872;2022-08-30T16:12:06;10.23;;;4.17;;
3696;SDS011;60662;48.810;8.872;2022-08-30T16:13:10;6.93;;;4.00;;
3696;SDS011;60662;48.810;8.872;2022-08-30T16:14:11;4.60;;;3.50;;
3696;SDS011;60662;48.810;8.872;2022-08-30T16:15:14;5.63;;;3.23;;
3696;SDS011;60662;48.810;8.872;2022-08-30T16:16:16;5.97;;;3.80;;
3696;SDS011;60662;48.810;8.872;2022-08-30T16:17:19;7.67;;;3.80;;
3696;SDS011;60662;48.810;8.872;2022-08-30T16:18:20;7.37;;;4.23;;
3696;SDS011;60662;48.810;8.872;2022-08-30T16:19:23;6.33;;;3.90;;
3696;SDS011;60662;48.810;8.872;2022-08-30T16:20:24;9.30;;;5.27;;
3696;SDS011;60662;48.810;8.872;2022-08-30T16:21:27;25.77;;;19.10;;
3696;SDS011;60662;48.810;8.872;2022-08-30T16:22:30;23.70;;;19.03;;
3696;SDS011;60662;48.810;8.872;2022-08-30T16:23:35;8.97;;;5.27;;
3696;SDS011;60662;48.810;8.872;2022-08-30T16:24:38;17.80;;;12.50;;
3696;SDS011;60662;48.810;8.872;2022-08-30T16:25:41;10.32;;;5.30;;
3696;SDS011;60662;48.810;8.872;2022-08-30T16:26:43;11.80;;;4.43;;
3696;SDS011;60662;48.810;8.872;2022-08-30T16:27:44;5.43;;;3.73;;
3696;SDS011;60662;48.810;8.872;2022-08-30T16:28:46;7.90;;;4.20;;
3696;SDS011;60662;48.810;8.872;2022-08-30T16:36:03;7.47;;;4.18;;
3696;SDS011;60662;48.810;8.872;2022-08-30T16:37:05;6.32;;;4.53;;
3696;SDS011;60662;48.810;8.872;2022-08-30T16:38:08;10.68;;;3.88;;
3696;SDS011;60662;48.810;8.872;2022-08-30T16:39:09;12.18;;;4.10;;
3696;SDS011;60662;48.810;8.872;2022-08-30T16:40:13;6.07;;;3.67;;
3696;SDS011;60662;48.810;8.872;2022-08-30T16:41:14;6.32;;;4.30;;
3696;SDS011;60662;48.810;8.872;2022-08-30T16:42:21;7.32;;;4.00;;
3696;SDS011;60662;48.810;8.872;2022-08-30T16:43:24;59.15;;;38.05;;
